Meteo Giornale » Osservazioni meteo Stati Uniti (USA) » Bristol-Johnson-Kingsport Tri-City
ore: 10:53 - Osservazioni Meteo Bristol-Johnson-Kingsport Tri-City
Lat. 36° 28' N Lon. 82° 23' W Alt. 463 metri s.l.m.
27 °C
Poco Nuvoloso
Temp. 24 Ore
19 °C
33 °C
Nord
7.4 Km/h
Dew point 21 °C
Umidità 69 %
Visibilità 10 Km
Il sole sorge alle ore 07:01
Il sole tramonta alle ore 19:57
| Data e Ora | Cielo e Fenomeni | T °C | DP °C | Um. % | Pres. hPa | Vis. km | Vento km/h | |
|---|---|---|---|---|---|---|---|---|
| Oggi h: 10:53 | Poco Nuvoloso | 27 | 21 | 69 | 1023 | 10 | N 7.4 | |
| Oggi h: 09:53 | Sereno | 23 | 21 | 88 | 1023 | 10 | N 0 | |
| Oggi h: 09:13 | Foschia | 22 | 21 | 94 | 1023 | 10 | N 0 | |
| Oggi h: 08:53 | Foschia | 21 | 21 | 100 | 1023 | 2 | N 0 | |
| Oggi h: 08:39 | Nebbia | 21 | 21 | 100 | 1023 | 2 | N 0 | |
| Oggi h: 08:25 | Nebbia | 21 | 20 | 94 | 1023 | 2 | N 0 | |
| Oggi h: 07:53 | Nebbia | 20 | 20 | 100 | 1022 | 2 | N 0 | |
| Oggi h: 07:13 | Nebbia | 19 | 19 | 100 | 1022 | 2 | N 0 | |
| Oggi h: 06:56 | Foschia | 19 | 19 | 100 | 1022 | 2 | N 0 | |
| Oggi h: 06:53 | Foschia | 19 | 19 | 100 | 1022 | 2 | N 0 | |
| Oggi h: 05:53 | Poco Nuvoloso | 19 | 19 | 100 | 1021 | 10 | N 0 | |
| Oggi h: 04:53 | Sereno | 19 | 19 | 100 | 1021 | 10 | N 0 | |
| Oggi h: 03:53 | Sereno | 19 | 19 | 100 | 1021 | 10 | N 0 | |
| Oggi h: 02:53 | Foschia | 19 | 19 | 100 | 1021 | 8 | N 0 | |
| Oggi h: 02:46 | Foschia | 19 | 19 | 100 | 1021 | 6 | N 0 | |
| Oggi h: 02:39 | Foschia | 20 | 20 | 100 | 1021 | 3 | N 0 | |
| Oggi h: 02:35 | Foschia | 20 | 20 | 100 | 1021 | 2 | N 0 | |
| Oggi h: 02:28 | Foschia | 21 | 21 | 100 | 1021 | 5 | N 0 | |
| Oggi h: 01:53 | Foschia | 20 | 20 | 100 | 1022 | 8 | N 0 | |
| Oggi h: 00:53 | Poco Nuvoloso | 21 | 21 | 100 | 1021 | 11 | N 0 | |
| Ieri h: 23:53 | Poco Nuvoloso | 21 | 21 | 100 | 1021 | 10 | N 0 | |
| Ieri h: 22:53 | Poco Nuvoloso | 22 | 21 | 94 | 1021 | 10 | N 0 | |
| Ieri h: 21:53 | Poco Nuvoloso | 23 | 21 | 88 | 1021 | 10 | N 5.5 | |
| Ieri h: 20:53 | Nuvoloso | 24 | 21 | 83 | 1020 | 10 | N 0 | |
| Ieri h: 19:53 | Nuvoloso | 27 | 21 | 69 | 1020 | 10 | N 5.5 | |
| Ieri h: 18:53 | Nuvoloso | 30 | 20 | 55 | 1020 | 10 | N 0 | |
| Ieri h: 17:53 | Molto Nuvoloso | 31 | 19 | 48 | 1021 | 10 | N 5.5 | |
| Ieri h: 16:53 | Molto Nuvoloso | 29 | 20 | 58 | 1021 | 10 | N 5.5 | |
| Ieri h: 15:53 | Molto Nuvoloso | 28 | 21 | 65 | 1021 | 10 | N 9.3 | |
| Ieri h: 14:53 | Molto Nuvoloso | 33 | 19 | 43 | 1022 | 10 | N 0 | |
| Ieri h: 13:53 | Nuvoloso | 32 | 19 | 46 | 1022 | 10 | N/NE 9.3 | |
| Ieri h: 12:53 | Nuvoloso | 30 | 20 | 55 | 1023 | 10 | N 5.5 | |
| Ieri h: 11:53 | Poco Nuvoloso | 29 | 21 | 62 | 1023 | 10 | N 7.4 | |



